createdAt,value
2019-03-19T00:00:54.822Z,84.70
2019-03-19T00:03:36.056Z,85.50
2019-03-19T00:06:17.516Z,83.10
2019-03-19T00:08:58.819Z,82.80
2019-03-19T00:11:40.218Z,71.20
2019-03-19T00:14:21.507Z,80.30
2019-03-19T00:19:43.304Z,88.10
2019-03-19T00:22:25.784Z,87.00
2019-03-19T00:25:07.693Z,85.60
2019-03-19T00:27:49.204Z,90.00
2019-03-19T00:30:30.767Z,89.10
2019-03-19T00:33:12.346Z,89.60
2019-03-19T00:38:32.915Z,88.90
2019-03-19T00:41:14.389Z,89.50
2019-03-19T00:43:55.674Z,89.60
2019-03-19T00:46:25.447Z,90.00
2019-03-19T00:49:14.189Z,90.50
2019-03-19T00:51:55.333Z,90.30
2019-03-19T00:54:36.171Z,90.50
2019-03-19T00:57:16.931Z,90.70
2019-03-19T01:02:29.745Z,90.80
2019-03-19T01:05:12.134Z,90.90
2019-03-19T01:07:53.288Z,91.40
2019-03-19T01:10:35.082Z,90.90
2019-03-19T01:18:12.918Z,91.00
2019-03-19T01:21:01.744Z,90.40
2019-03-19T01:23:50.563Z,90.80
2019-03-19T01:26:20.303Z,90.60
2019-03-19T01:28:50.049Z,90.70
2019-03-19T01:31:38.910Z,90.10
2019-03-19T01:34:27.743Z,90.60
2019-03-19T01:37:16.542Z,90.60
2019-03-19T01:42:34.396Z,91.20
2019-03-19T01:45:23.141Z,90.70
2019-03-19T01:48:04.164Z,90.50
2019-03-19T01:50:45.177Z,91.00
2019-03-19T01:53:26.456Z,90.70
2019-03-19T01:58:47.252Z,91.40
2019-03-19T02:01:29.465Z,91.50
2019-03-19T02:04:10.694Z,91.20
2019-03-19T02:06:52.843Z,91.40
2019-03-19T02:09:22.746Z,91.50
2019-03-19T02:12:11.468Z,90.70
2019-03-19T02:14:53.546Z,90.30
2019-03-19T02:20:17.933Z,88.90
2019-03-19T02:22:58.948Z,89.80
2019-03-19T02:25:40.470Z,86.40
2019-03-19T02:28:10.359Z,89.00
2019-03-19T02:30:40.175Z,88.60
2019-03-19T02:35:44.134Z,88.10
2019-03-19T02:43:14.284Z,86.50
2019-03-19T02:45:44.028Z,87.10
2019-03-19T02:48:13.839Z,87.60
2019-03-19T02:51:02.738Z,86.60
2019-03-19T02:53:51.488Z,88.20
2019-03-19T02:59:15.471Z,88.20
2019-03-19T03:04:36.109Z,79.10
2019-03-19T03:07:17.577Z,87.60
2019-03-19T03:12:37.145Z,84.70
2019-03-19T03:17:47.108Z,89.90
2019-03-19T03:20:35.821Z,88.50
2019-03-19T03:23:05.987Z,90.30
2019-03-19T03:25:35.819Z,89.00
2019-03-19T03:28:05.866Z,88.30
2019-03-19T03:30:54.600Z,89.20
2019-03-19T03:33:37.216Z,88.80
2019-03-19T03:36:18.632Z,88.30
2019-03-19T03:41:17.389Z,89.40
2019-03-19T03:43:47.574Z,88.80
2019-03-19T03:46:36.299Z,90.00
2019-03-19T03:51:54.061Z,90.00
2019-03-19T04:00:01.219Z,89.50
2019-03-19T04:05:14.437Z,89.70
2019-03-19T04:07:44.132Z,88.30
2019-03-19T04:10:32.917Z,88.80
2019-03-19T04:13:02.789Z,90.00
2019-03-19T04:15:32.529Z,89.70
2019-03-19T04:18:21.235Z,90.20
2019-03-19T04:21:09.960Z,90.20
2019-03-19T04:23:51.824Z,90.40
2019-03-19T04:26:21.642Z,90.10
2019-03-19T04:28:52.754Z,90.70
2019-03-19T04:31:41.555Z,90.50
2019-03-19T04:34:11.387Z,90.70
2019-03-19T04:39:32.540Z,91.00
2019-03-19T04:44:41.904Z,91.10
2019-03-19T04:47:30.659Z,88.50
2019-03-19T04:50:12.039Z,90.40
2019-03-19T04:55:32.120Z,90.90
2019-03-19T05:00:50.088Z,90.70
2019-03-19T05:03:32.177Z,90.20
2019-03-19T05:06:13.555Z,90.20
2019-03-19T05:08:54.767Z,91.50
2019-03-19T05:11:36.341Z,91.10
2019-03-19T05:14:17.536Z,91.40
2019-03-19T05:16:58.802Z,91.80
2019-03-19T05:19:39.942Z,91.20
2019-03-19T05:22:21.443Z,91.10
2019-03-19T05:25:02.653Z,91.20
2019-03-19T05:27:44.221Z,91.20
2019-03-19T05:30:25.934Z,91.10
2019-03-19T05:33:07.595Z,91.00
2019-03-19T05:38:28.221Z,91.10
2019-03-19T05:41:09.758Z,90.70
2019-03-19T05:43:51.287Z,90.40
2019-03-19T05:46:33.286Z,91.00
2019-03-19T05:49:14.549Z,91.20
2019-03-19T05:51:44.488Z,90.80
2019-03-19T05:54:33.400Z,91.20
2019-03-19T05:57:05.044Z,90.50
2019-03-19T05:59:34.789Z,90.70
2019-03-19T06:02:23.511Z,90.60
2019-03-19T06:04:53.324Z,90.40
2019-03-19T06:07:42.008Z,90.10
2019-03-19T06:10:30.796Z,90.30
2019-03-19T06:13:12.169Z,90.40
2019-03-19T06:15:53.043Z,90.50
2019-03-19T06:18:35.550Z,89.90
2019-03-19T06:23:36.744Z,89.30
2019-03-19T06:26:25.574Z,89.60
2019-03-19T06:28:55.753Z,90.20
2019-03-19T06:31:44.554Z,90.20
2019-03-19T06:34:25.786Z,90.30
2019-03-19T06:37:06.739Z,90.80
2019-03-19T06:39:50.714Z,90.40
2019-03-19T06:42:31.613Z,90.50
2019-03-19T06:45:13.514Z,90.50
2019-03-19T06:47:51.782Z,90.50
2019-03-19T06:50:32.647Z,90.50
2019-03-19T06:55:57.437Z,90.00
2019-03-19T07:04:26.328Z,89.80
2019-03-19T07:06:56.330Z,89.90
2019-03-19T07:09:45.305Z,89.10
2019-03-19T07:12:34.117Z,89.30
2019-03-19T07:15:15.399Z,90.40
2019-03-19T07:17:57.830Z,90.00
2019-03-19T07:20:41.218Z,90.10
2019-03-19T07:23:31.600Z,90.10
2019-03-19T07:26:15.484Z,90.10
2019-03-19T07:28:56.548Z,90.30
2019-03-19T07:31:37.808Z,89.20
2019-03-19T07:34:19.477Z,90.10
2019-03-19T07:39:42.755Z,88.10
2019-03-19T07:42:14.925Z,79.50
2019-03-19T07:45:03.781Z,88.50
2019-03-19T07:48:08.242Z,88.80
2019-03-19T07:50:35.308Z,87.60
2019-03-19T07:56:01.821Z,86.10
2019-03-19T07:58:45.999Z,85.50
2019-03-19T08:03:44.994Z,84.40
2019-03-19T08:06:33.941Z,83.50
2019-03-19T08:09:22.723Z,84.80
2019-03-19T08:12:03.907Z,84.50
2019-03-19T08:14:44.767Z,79.30
2019-03-19T08:20:04.602Z,82.90
2019-03-19T08:22:47.535Z,82.90
2019-03-19T08:28:07.645Z,81.80
2019-03-19T08:30:56.329Z,81.20
2019-03-19T08:33:37.496Z,79.60
2019-03-19T08:36:19.683Z,81.90
2019-03-19T08:39:01.554Z,82.90
2019-03-19T08:41:42.620Z,81.10
2019-03-19T08:44:27.768Z,80.60
2019-03-19T08:47:06.384Z,80.20
2019-03-19T08:49:47.776Z,80.60
2019-03-19T08:52:28.940Z,81.30
2019-03-19T08:55:10.984Z,81.80
2019-03-19T08:57:52.002Z,82.40
2019-03-19T09:00:33.027Z,79.90
2019-03-19T09:03:14.861Z,78.10
2019-03-19T09:08:23.803Z,81.50
2019-03-19T09:11:15.558Z,79.00
2019-03-19T09:13:45.316Z,80.20
2019-03-19T09:19:03.176Z,80.30
2019-03-19T09:26:59.379Z,80.70
2019-03-19T09:29:44.149Z,80.10
2019-03-19T09:32:28.246Z,80.80
2019-03-19T09:35:14.649Z,79.80
2019-03-19T09:42:57.548Z,77.40
2019-03-19T09:46:54.203Z,75.90
2019-03-19T09:49:39.196Z,75.50
2019-03-19T09:55:49.433Z,81.10
2019-03-19T10:04:47.137Z,77.70
2019-03-19T10:09:53.804Z,77.20
2019-03-19T10:18:10.886Z,74.70
2019-03-19T10:20:51.907Z,75.00
2019-03-19T10:23:33.189Z,74.80
2019-03-19T10:26:15.089Z,73.90
2019-03-19T10:28:56.278Z,73.10
2019-03-19T10:34:18.664Z,73.90
2019-03-19T10:39:49.313Z,73.70
2019-03-19T10:45:14.248Z,71.30
2019-03-19T10:47:55.737Z,73.10
2019-03-19T10:56:03.428Z,73.10
2019-03-19T11:03:56.365Z,69.80
2019-03-19T11:06:26.755Z,70.30
2019-03-19T11:09:15.650Z,71.50
2019-03-19T11:12:04.634Z,70.50
2019-03-19T11:14:47.177Z,70.90
2019-03-19T11:17:30.412Z,70.10
2019-03-19T11:20:11.023Z,69.40
2019-03-19T11:22:55.061Z,68.40
2019-03-19T11:25:37.645Z,68.40
2019-03-19T11:28:18.660Z,66.20
2019-03-19T11:31:00.417Z,67.20
2019-03-19T11:33:42.628Z,61.40
2019-03-19T11:36:20.650Z,67.50
2019-03-19T11:39:03.213Z,67.50
2019-03-19T11:41:46.964Z,66.90
2019-03-19T11:44:29.081Z,65.80
2019-03-19T11:49:49.692Z,67.20
2019-03-19T11:52:31.164Z,66.60
2019-03-19T11:57:52.334Z,67.10
2019-03-19T12:00:42.382Z,66.10
2019-03-19T12:03:23.929Z,67.20
2019-03-19T12:06:05.706Z,66.60
2019-03-19T12:08:46.963Z,66.00
2019-03-19T12:14:09.312Z,66.50
2019-03-19T12:19:31.880Z,66.30
2019-03-19T12:22:12.813Z,66.80
2019-03-19T12:27:40.367Z,65.90
2019-03-19T12:30:25.935Z,65.20
2019-03-19T12:35:45.658Z,63.90
2019-03-19T12:38:20.274Z,63.60
2019-03-19T12:41:09.361Z,62.60
2019-03-19T12:46:13.839Z,65.50
2019-03-19T12:48:40.876Z,63.90
2019-03-19T12:51:29.888Z,63.10
2019-03-19T12:53:59.647Z,63.00
2019-03-19T12:56:50.494Z,65.80
2019-03-19T12:59:39.515Z,65.60
2019-03-19T13:02:28.330Z,57.20
2019-03-19T13:05:17.366Z,69.80
2019-03-19T13:08:07.313Z,71.60
2019-03-19T13:13:34.501Z,73.60
2019-03-19T13:18:57.798Z,73.50
2019-03-19T13:24:21.558Z,72.60
2019-03-19T13:27:02.852Z,72.40
2019-03-19T13:29:44.388Z,70.80
2019-03-19T13:32:31.189Z,65.90
2019-03-19T13:35:12.857Z,73.40
2019-03-19T13:40:33.655Z,70.70
2019-03-19T13:45:53.927Z,64.10
2019-03-19T13:51:14.429Z,72.00
2019-03-19T13:59:19.167Z,66.90
2019-03-19T14:04:40.359Z,63.40
2019-03-19T14:10:05.374Z,63.20
2019-03-19T14:12:47.055Z,60.30
2019-03-19T14:18:19.287Z,58.80
2019-03-19T14:21:02.407Z,59.60
2019-03-19T14:23:45.353Z,43.00
2019-03-19T14:26:26.579Z,56.90
2019-03-19T14:29:09.535Z,59.60
2019-03-19T14:34:29.770Z,62.50
2019-03-19T14:42:29.709Z,64.60
2019-03-19T14:47:50.166Z,64.40
2019-03-19T14:53:12.238Z,64.60
2019-03-19T14:55:54.603Z,65.80
2019-03-19T14:58:35.968Z,67.20
2019-03-19T15:04:04.568Z,68.20
2019-03-19T15:06:34.630Z,67.40
2019-03-19T15:09:23.513Z,66.80
2019-03-19T15:11:53.360Z,66.10
2019-03-19T15:14:42.283Z,65.20
2019-03-19T15:20:00.395Z,64.40
2019-03-19T15:22:49.391Z,64.30
2019-03-19T15:25:31.026Z,65.10
2019-03-19T15:30:52.450Z,66.10
2019-03-19T15:36:13.797Z,66.70
2019-03-19T15:47:08.084Z,70.70
2019-03-19T15:49:50.084Z,71.60
2019-03-19T15:52:31.831Z,66.00
2019-03-19T15:57:40.187Z,74.10
2019-03-19T16:08:42.414Z,74.50
2019-03-19T16:11:25.213Z,74.90
2019-03-19T16:14:02.226Z,73.80
2019-03-19T16:19:52.492Z,74.20
2019-03-19T16:22:41.336Z,74.70
2019-03-19T16:25:29.961Z,75.30
2019-03-19T16:28:11.084Z,75.40
2019-03-19T16:30:52.621Z,75.70
2019-03-19T16:36:25.064Z,74.80
2019-03-19T16:47:12.522Z,73.80
2019-03-19T16:49:53.883Z,73.90
2019-03-19T16:52:36.864Z,74.80
2019-03-19T16:55:21.908Z,73.10
2019-03-19T16:58:07.105Z,73.30
2019-03-19T18:27:50.064Z,82.50
2019-03-19T18:33:20.576Z,81.30
2019-03-19T18:36:03.244Z,81.60
2019-03-19T18:38:45.970Z,81.80
2019-03-19T18:41:29.129Z,81.50
2019-03-19T18:46:56.674Z,80.40
2019-03-19T18:49:40.948Z,81.10
2019-03-19T19:01:38.624Z,82.80
2019-03-19T19:07:11.146Z,78.30
2019-03-19T19:09:52.139Z,80.70
2019-03-19T19:12:35.765Z,82.70
2019-03-19T19:15:17.446Z,82.60
2019-03-19T19:17:59.161Z,84.10
2019-03-19T19:20:40.325Z,83.30
2019-03-19T19:25:53.814Z,78.60
2019-03-19T19:28:23.981Z,83.00
2019-03-19T19:33:22.997Z,84.70
2019-03-19T19:36:11.773Z,86.60
2019-03-19T19:38:53.129Z,87.70
2019-03-19T19:41:34.441Z,87.80
2019-03-19T19:44:15.853Z,87.20
2019-03-19T19:46:57.475Z,87.90
2019-03-19T19:52:17.226Z,87.40
2019-03-19T19:57:36.989Z,87.60
2019-03-19T20:02:56.865Z,87.50
2019-03-19T20:08:21.324Z,87.80
2019-03-19T20:11:02.675Z,88.10
2019-03-19T20:19:04.629Z,87.80
2019-03-19T20:21:45.609Z,88.60
2019-03-19T20:24:27.120Z,87.50
2019-03-19T20:29:47.883Z,89.60
2019-03-19T20:32:30.619Z,87.20
2019-03-19T20:35:12.230Z,87.80
2019-03-19T20:37:53.507Z,89.30
2019-03-19T20:40:35.139Z,89.50
2019-03-19T20:45:55.907Z,89.50
2019-03-19T20:48:38.702Z,90.50
2019-03-19T20:51:19.722Z,90.40
2019-03-19T20:54:01.487Z,90.50
2019-03-19T20:56:42.604Z,90.60
2019-03-19T20:59:24.247Z,90.50
2019-03-19T21:04:58.903Z,91.10
2019-03-19T21:07:40.113Z,90.60
2019-03-19T21:13:00.852Z,90.20
2019-03-19T21:15:42.593Z,91.30
2019-03-19T21:18:24.184Z,91.80
2019-03-19T21:26:31.022Z,92.30
2019-03-19T21:29:29.864Z,90.20
2019-03-19T21:40:33.802Z,93.00
2019-03-19T21:43:15.993Z,93.60
2019-03-19T21:48:40.306Z,88.40
2019-03-19T21:54:02.344Z,93.30
2019-03-19T21:56:46.872Z,93.40
2019-03-19T22:10:12.834Z,93.60
2019-03-19T22:18:28.815Z,93.00
2019-03-19T22:21:11.874Z,93.10
2019-03-19T22:23:53.307Z,93.50
2019-03-19T22:26:36.356Z,93.60
2019-03-19T22:31:58.076Z,93.60
2019-03-19T22:34:39.521Z,90.00
2019-03-19T22:39:59.952Z,94.40
2019-03-19T22:42:41.122Z,93.70
2019-03-19T22:53:25.465Z,92.40
2019-03-19T22:55:56.553Z,92.20
2019-03-19T22:58:45.362Z,91.80
2019-03-19T23:04:15.385Z,92.00
2019-03-19T23:06:45.344Z,92.00
2019-03-19T23:12:37.720Z,93.20
2019-03-19T23:15:15.620Z,93.80
2019-03-19T23:17:56.787Z,92.90
2019-03-19T23:20:40.619Z,93.20
2019-03-19T23:23:21.945Z,94.00
2019-03-19T23:26:12.132Z,93.80
2019-03-19T23:29:01.095Z,93.10
2019-03-19T23:31:42.218Z,93.50
2019-03-19T23:34:23.456Z,93.90
2019-03-19T23:37:04.644Z,94.00
2019-03-19T23:42:26.054Z,93.10
2019-03-19T23:45:09.119Z,92.70
2019-03-19T23:50:34.832Z,92.60
2019-03-19T23:53:18.464Z,92.60
2019-03-19T23:55:59.748Z,90.30
